sensor_id;sensor_type;location;lat;lon;timestamp;pressure;altitude;pressure_sealevel;temperature;humidity
14117;BME280;7137;51.436;6.544;2023-08-01T00:02:34;99503.88;;;17.53;100.00
14117;BME280;7137;51.436;6.544;2023-08-01T00:05:35;99504.25;;;17.60;100.00
14117;BME280;7137;51.436;6.544;2023-08-01T00:08:37;99493.44;;;17.40;100.00
14117;BME280;7137;51.436;6.544;2023-08-01T00:11:39;99488.38;;;17.60;100.00
14117;BME280;7137;51.436;6.544;2023-08-01T00:14:42;99473.13;;;17.74;100.00
14117;BME280;7137;51.436;6.544;2023-08-01T00:17:43;99477.31;;;17.77;100.00
14117;BME280;7137;51.436;6.544;2023-08-01T00:20:45;99465.53;;;17.81;100.00
14117;BME280;7137;51.436;6.544;2023-08-01T00:23:46;99475.28;;;17.80;100.00
14117;BME280;7137;51.436;6.544;2023-08-01T00:26:48;99468.19;;;17.81;100.00
14117;BME280;7137;51.436;6.544;2023-08-01T00:29:51;99480.09;;;17.64;100.00
14117;BME280;7137;51.436;6.544;2023-08-01T00:32:52;99472.41;;;17.72;100.00
14117;BME280;7137;51.436;6.544;2023-08-01T00:35:55;99466.25;;;17.83;100.00
14117;BME280;7137;51.436;6.544;2023-08-01T00:38:57;99460.94;;;17.94;100.00
14117;BME280;7137;51.436;6.544;2023-08-01T00:41:58;99453.69;;;17.75;100.00
14117;BME280;7137;51.436;6.544;2023-08-01T00:45:02;99449.44;;;17.84;100.00
14117;BME280;7137;51.436;6.544;2023-08-01T00:48:04;99440.63;;;17.95;100.00
14117;BME280;7137;51.436;6.544;2023-08-01T00:51:06;99447.50;;;17.86;100.00
14117;BME280;7137;51.436;6.544;2023-08-01T00:54:09;99432.16;;;17.80;100.00
14117;BME280;7137;51.436;6.544;2023-08-01T00:57:10;99435.97;;;17.87;100.00
14117;BME280;7137;51.436;6.544;2023-08-01T01:00:14;99431.41;;;17.89;100.00
14117;BME280;7137;51.436;6.544;2023-08-01T01:03:17;99433.66;;;17.94;100.00
14117;BME280;7137;51.436;6.544;2023-08-01T01:06:22;99431.03;;;17.94;100.00
14117;BME280;7137;51.436;6.544;2023-08-01T01:09:28;99444.97;;;17.85;100.00
14117;BME280;7137;51.436;6.544;2023-08-01T01:12:31;99446.56;;;17.21;100.00
14117;BME280;7137;51.436;6.544;2023-08-01T01:15:34;99440.81;;;17.05;100.00
14117;BME280;7137;51.436;6.544;2023-08-01T01:18:36;99432.78;;;16.96;100.00
14117;BME280;7137;51.436;6.544;2023-08-01T01:21:40;99424.72;;;16.86;100.00
14117;BME280;7137;51.436;6.544;2023-08-01T01:24:43;99424.16;;;17.05;100.00
14117;BME280;7137;51.436;6.544;2023-08-01T01:27:47;99419.59;;;17.07;100.00
14117;BME280;7137;51.436;6.544;2023-08-01T01:30:49;99414.56;;;16.92;100.00
14117;BME280;7137;51.436;6.544;2023-08-01T01:33:54;99412.03;;;16.91;100.00
14117;BME280;7137;51.436;6.544;2023-08-01T01:36:58;99403.50;;;16.87;100.00
14117;BME280;7137;51.436;6.544;2023-08-01T01:40:00;99403.63;;;16.97;100.00
14117;BME280;7137;51.436;6.544;2023-08-01T01:43:02;99392.84;;;16.89;100.00
14117;BME280;7137;51.436;6.544;2023-08-01T01:46:03;99404.84;;;16.93;100.00
14117;BME280;7137;51.436;6.544;2023-08-01T01:49:05;99396.94;;;16.93;100.00
14117;BME280;7137;51.436;6.544;2023-08-01T01:52:08;99409.88;;;16.85;100.00
14117;BME280;7137;51.436;6.544;2023-08-01T01:55:10;99399.81;;;16.79;100.00
14117;BME280;7137;51.436;6.544;2023-08-01T01:58:11;99409.53;;;16.89;100.00
14117;BME280;7137;51.436;6.544;2023-08-01T02:01:13;99406.88;;;16.89;100.00
14117;BME280;7137;51.436;6.544;2023-08-01T02:04:15;99401.25;;;16.94;100.00
14117;BME280;7137;51.436;6.544;2023-08-01T02:07:18;99402.78;;;16.74;100.00
14117;BME280;7137;51.436;6.544;2023-08-01T02:10:19;99395.59;;;16.65;100.00
14117;BME280;7137;51.436;6.544;2023-08-01T02:13:21;99392.50;;;16.71;100.00
14117;BME280;7137;51.436;6.544;2023-08-01T02:16:22;99387.53;;;16.67;100.00
14117;BME280;7137;51.436;6.544;2023-08-01T02:19:24;99391.84;;;16.56;100.00
14117;BME280;7137;51.436;6.544;2023-08-01T02:22:27;99386.47;;;16.58;100.00
14117;BME280;7137;51.436;6.544;2023-08-01T02:25:29;99391.50;;;16.50;100.00
14117;BME280;7137;51.436;6.544;2023-08-01T02:28:30;99390.28;;;16.43;100.00
14117;BME280;7137;51.436;6.544;2023-08-01T02:31:32;99397.00;;;16.36;100.00
14117;BME280;7137;51.436;6.544;2023-08-01T02:34:33;99404.06;;;16.35;100.00
14117;BME280;7137;51.436;6.544;2023-08-01T02:37:36;99405.00;;;16.23;100.00
14117;BME280;7137;51.436;6.544;2023-08-01T02:40:38;99407.97;;;16.18;100.00
14117;BME280;7137;51.436;6.544;2023-08-01T02:43:39;99407.34;;;16.15;100.00
14117;BME280;7137;51.436;6.544;2023-08-01T02:46:41;99414.41;;;16.14;100.00
14117;BME280;7137;51.436;6.544;2023-08-01T02:49:43;99413.81;;;16.11;100.00
14117;BME280;7137;51.436;6.544;2023-08-01T02:52:46;99420.78;;;16.12;100.00
14117;BME280;7137;51.436;6.544;2023-08-01T02:55:47;99430.13;;;16.16;100.00
14117;BME280;7137;51.436;6.544;2023-08-01T02:58:49;99434.66;;;16.14;100.00
14117;BME280;7137;51.436;6.544;2023-08-01T03:01:52;99427.94;;;16.10;100.00
14117;BME280;7137;51.436;6.544;2023-08-01T03:04:53;99433.78;;;16.02;100.00
14117;BME280;7137;51.436;6.544;2023-08-01T03:07:56;99432.47;;;15.96;100.00
14117;BME280;7137;51.436;6.544;2023-08-01T03:10:58;99427.53;;;15.92;100.00
14117;BME280;7137;51.436;6.544;2023-08-01T03:13:59;99436.03;;;15.95;100.00
14117;BME280;7137;51.436;6.544;2023-08-01T03:17:01;99441.44;;;15.94;100.00
14117;BME280;7137;51.436;6.544;2023-08-01T03:20:03;99442.28;;;15.94;100.00
14117;BME280;7137;51.436;6.544;2023-08-01T03:23:07;99442.09;;;16.09;100.00
14117;BME280;7137;51.436;6.544;2023-08-01T03:26:08;99439.44;;;16.09;100.00
14117;BME280;7137;51.436;6.544;2023-08-01T03:29:10;99437.13;;;16.04;100.00
14117;BME280;7137;51.436;6.544;2023-08-01T03:32:12;99446.63;;;16.07;100.00
14117;BME280;7137;51.436;6.544;2023-08-01T03:35:13;99451.91;;;16.07;100.00
14117;BME280;7137;51.436;6.544;2023-08-01T03:38:16;99452.22;;;16.02;100.00
14117;BME280;7137;51.436;6.544;2023-08-01T03:41:18;99467.91;;;16.03;100.00
14117;BME280;7137;51.436;6.544;2023-08-01T03:44:20;99464.31;;;16.04;100.00
14117;BME280;7137;51.436;6.544;2023-08-01T03:47:21;99467.91;;;16.03;100.00
14117;BME280;7137;51.436;6.544;2023-08-01T03:50:23;99465.09;;;16.18;100.00
14117;BME280;7137;51.436;6.544;2023-08-01T03:53:26;99465.72;;;16.32;100.00
14117;BME280;7137;51.436;6.544;2023-08-01T03:56:27;99474.72;;;16.30;100.00
14117;BME280;7137;51.436;6.544;2023-08-01T03:59:29;99473.69;;;16.44;100.00
14117;BME280;7137;51.436;6.544;2023-08-01T04:02:31;99473.34;;;16.48;100.00
14117;BME280;7137;51.436;6.544;2023-08-01T04:05:32;99466.88;;;16.52;100.00
14117;BME280;7137;51.436;6.544;2023-08-01T04:08:35;99468.19;;;16.58;100.00
14117;BME280;7137;51.436;6.544;2023-08-01T04:11:37;99462.25;;;16.21;100.00
14117;BME280;7137;51.436;6.544;2023-08-01T04:14:38;99470.88;;;16.23;100.00
14117;BME280;7137;51.436;6.544;2023-08-01T04:17:40;99468.00;;;16.26;100.00
14117;BME280;7137;51.436;6.544;2023-08-01T04:20:42;99467.53;;;16.21;100.00
14117;BME280;7137;51.436;6.544;2023-08-01T04:23:45;99461.25;;;16.11;100.00
14117;BME280;7137;51.436;6.544;2023-08-01T04:26:46;99460.47;;;15.97;100.00
14117;BME280;7137;51.436;6.544;2023-08-01T04:29:48;99461.25;;;16.11;100.00
14117;BME280;7137;51.436;6.544;2023-08-01T04:32:50;99455.66;;;16.26;100.00
14117;BME280;7137;51.436;6.544;2023-08-01T04:35:51;99470.16;;;16.32;100.00
14117;BME280;7137;51.436;6.544;2023-08-01T04:38:54;99469.69;;;16.27;100.00
14117;BME280;7137;51.436;6.544;2023-08-01T04:41:56;99467.09;;;16.38;100.00
14117;BME280;7137;51.436;6.544;2023-08-01T04:44:57;99471.16;;;16.42;100.00
14117;BME280;7137;51.436;6.544;2023-08-01T04:47:59;99470.00;;;16.57;100.00
14117;BME280;7137;51.436;6.544;2023-08-01T04:51:01;99473.75;;;16.31;100.00
14117;BME280;7137;51.436;6.544;2023-08-01T04:54:04;99472.47;;;16.37;100.00
14117;BME280;7137;51.436;6.544;2023-08-01T04:57:06;99474.28;;;16.36;100.00
14117;BME280;7137;51.436;6.544;2023-08-01T05:00:10;99476.63;;;16.28;100.00
14117;BME280;7137;51.436;6.544;2023-08-01T05:03:11;99472.94;;;16.42;100.00
14117;BME280;7137;51.436;6.544;2023-08-01T05:06:13;99485.06;;;16.44;100.00
14117;BME280;7137;51.436;6.544;2023-08-01T05:09:16;99483.16;;;16.57;100.00
14117;BME280;7137;51.436;6.544;2023-08-01T05:12:17;99490.84;;;16.60;100.00
14117;BME280;7137;51.436;6.544;2023-08-01T05:15:19;99491.59;;;16.62;100.00
14117;BME280;7137;51.436;6.544;2023-08-01T05:18:21;99493.09;;;16.78;100.00
14117;BME280;7137;51.436;6.544;2023-08-01T05:21:22;99497.16;;;16.82;100.00
14117;BME280;7137;51.436;6.544;2023-08-01T05:24:25;99492.56;;;16.73;100.00
14117;BME280;7137;51.436;6.544;2023-08-01T05:27:27;99501.19;;;16.63;100.00
14117;BME280;7137;51.436;6.544;2023-08-01T05:30:28;99500.50;;;16.73;100.00
14117;BME280;7137;51.436;6.544;2023-08-01T05:33:30;99500.72;;;16.70;100.00
14117;BME280;7137;51.436;6.544;2023-08-01T05:36:32;99501.63;;;16.92;100.00
14117;BME280;7137;51.436;6.544;2023-08-01T05:39:34;99501.59;;;16.81;100.00
14117;BME280;7137;51.436;6.544;2023-08-01T05:42:36;99499.81;;;16.93;100.00
14117;BME280;7137;51.436;6.544;2023-08-01T05:45:38;99501.81;;;16.67;100.00
14117;BME280;7137;51.436;6.544;2023-08-01T05:48:39;99494.88;;;16.88;100.00
14117;BME280;7137;51.436;6.544;2023-08-01T05:51:41;99507.59;;;16.95;100.00
14117;BME280;7137;51.436;6.544;2023-08-01T05:54:44;99505.31;;;17.01;100.00
14117;BME280;7137;51.436;6.544;2023-08-01T05:57:45;99515.88;;;17.01;100.00
14117;BME280;7137;51.436;6.544;2023-08-01T06:00:49;99513.25;;;17.12;100.00
14117;BME280;7137;51.436;6.544;2023-08-01T06:03:51;99516.03;;;17.22;100.00
14117;BME280;7137;51.436;6.544;2023-08-01T06:06:52;99519.03;;;17.17;100.00
14117;BME280;7137;51.436;6.544;2023-08-01T06:09:55;99519.97;;;17.39;100.00
14117;BME280;7137;51.436;6.544;2023-08-01T06:12:57;99522.72;;;17.60;100.00
14117;BME280;7137;51.436;6.544;2023-08-01T06:15:58;99521.84;;;17.59;100.00
14117;BME280;7137;51.436;6.544;2023-08-01T06:19:00;99524.41;;;17.38;100.00
14117;BME280;7137;51.436;6.544;2023-08-01T06:22:01;99522.84;;;17.25;100.00
14117;BME280;7137;51.436;6.544;2023-08-01T06:25:06;99526.81;;;17.30;100.00
14117;BME280;7137;51.436;6.544;2023-08-01T06:28:08;99525.72;;;17.44;100.00
14117;BME280;7137;51.436;6.544;2023-08-01T06:31:09;99525.59;;;17.79;100.00
14117;BME280;7137;51.436;6.544;2023-08-01T06:34:11;99524.97;;;17.87;100.00
14117;BME280;7137;51.436;6.544;2023-08-01T06:37:13;99530.28;;;17.64;100.00
14117;BME280;7137;51.436;6.544;2023-08-01T06:40:16;99538.78;;;17.57;100.00
14117;BME280;7137;51.436;6.544;2023-08-01T06:43:17;99528.22;;;17.79;100.00
14117;BME280;7137;51.436;6.544;2023-08-01T06:46:19;99534.94;;;17.72;100.00
14117;BME280;7137;51.436;6.544;2023-08-01T06:49:21;99541.59;;;18.42;99.87
14117;BME280;7137;51.436;6.544;2023-08-01T06:52:22;99532.94;;;18.72;95.89
14117;BME280;7137;51.436;6.544;2023-08-01T06:55:25;99541.66;;;19.14;93.74
14117;BME280;7137;51.436;6.544;2023-08-01T06:58:27;99537.94;;;19.16;97.53
14117;BME280;7137;51.436;6.544;2023-08-01T07:01:28;99538.94;;;19.25;92.32
14117;BME280;7137;51.436;6.544;2023-08-01T07:04:30;99542.59;;;20.53;87.42
14117;BME280;7137;51.436;6.544;2023-08-01T07:07:32;99539.19;;;19.52;88.27
14117;BME280;7137;51.436;6.544;2023-08-01T07:10:35;99530.91;;;19.06;92.80
14117;BME280;7137;51.436;6.544;2023-08-01T07:13:37;99541.31;;;18.24;97.60
14117;BME280;7137;51.436;6.544;2023-08-01T07:16:39;99539.38;;;17.83;99.77
14117;BME280;7137;51.436;6.544;2023-08-01T07:19:40;99552.22;;;17.87;100.00
14117;BME280;7137;51.436;6.544;2023-08-01T07:22:42;99555.09;;;18.27;99.95
14117;BME280;7137;51.436;6.544;2023-08-01T07:25:45;99556.97;;;18.48;96.08
14117;BME280;7137;51.436;6.544;2023-08-01T07:28:46;99554.69;;;19.26;93.75
14117;BME280;7137;51.436;6.544;2023-08-01T07:31:48;99558.59;;;20.12;87.52
14117;BME280;7137;51.436;6.544;2023-08-01T07:34:50;99553.91;;;20.74;85.10
14117;BME280;7137;51.436;6.544;2023-08-01T07:37:51;99563.09;;;20.22;85.38
14117;BME280;7137;51.436;6.544;2023-08-01T07:40:55;99557.88;;;21.07;81.57
14117;BME280;7137;51.436;6.544;2023-08-01T07:43:56;99563.00;;;20.42;85.09
14117;BME280;7137;51.436;6.544;2023-08-01T07:46:58;99570.75;;;19.55;88.49
14117;BME280;7137;51.436;6.544;2023-08-01T07:49:59;99559.09;;;20.47;86.74
14117;BME280;7137;51.436;6.544;2023-08-01T07:53:01;99565.72;;;20.12;85.23
14117;BME280;7137;51.436;6.544;2023-08-01T07:56:04;99557.72;;;19.73;88.82
14117;BME280;7137;51.436;6.544;2023-08-01T07:59:08;99556.06;;;19.51;88.08
14117;BME280;7137;51.436;6.544;2023-08-01T08:02:10;99560.75;;;19.38;89.81
14117;BME280;7137;51.436;6.544;2023-08-01T08:05:12;99562.63;;;19.97;86.98
14117;BME280;7137;51.436;6.544;2023-08-01T08:08:14;99574.94;;;21.04;80.58
14117;BME280;7137;51.436;6.544;2023-08-01T08:11:16;99576.69;;;20.48;83.53
14117;BME280;7137;51.436;6.544;2023-08-01T08:14:18;99572.13;;;19.90;85.74
14117;BME280;7137;51.436;6.544;2023-08-01T08:17:23;99574.19;;;19.16;88.78
14117;BME280;7137;51.436;6.544;2023-08-01T08:20:24;99570.56;;;18.43;93.04
14117;BME280;7137;51.436;6.544;2023-08-01T08:23:26;99582.41;;;18.60;94.76
14117;BME280;7137;51.436;6.544;2023-08-01T08:26:29;99593.97;;;21.00;82.81
14117;BME280;7137;51.436;6.544;2023-08-01T08:29:32;99584.03;;;20.25;83.96
14117;BME280;7137;51.436;6.544;2023-08-01T08:32:35;99586.03;;;19.82;86.86
14117;BME280;7137;51.436;6.544;2023-08-01T08:35:37;99572.44;;;20.06;86.19
14117;BME280;7137;51.436;6.544;2023-08-01T08:38:38;99569.34;;;21.27;77.98
14117;BME280;7137;51.436;6.544;2023-08-01T08:41:45;99579.13;;;23.42;74.61
14117;BME280;7137;51.436;6.544;2023-08-01T08:44:50;99586.22;;;25.72;63.44
14117;BME280;7137;51.436;6.544;2023-08-01T08:47:55;99584.91;;;25.76;60.25
14117;BME280;7137;51.436;6.544;2023-08-01T08:51:02;99588.44;;;25.68;58.47
14117;BME280;7137;51.436;6.544;2023-08-01T08:54:05;99589.16;;;24.32;61.24
14117;BME280;7137;51.436;6.544;2023-08-01T08:57:08;99579.25;;;25.46;60.15
14117;BME280;7137;51.436;6.544;2023-08-01T09:00:11;99586.13;;;24.27;61.50
14117;BME280;7137;51.436;6.544;2023-08-01T09:03:13;99582.72;;;23.06;65.52
14117;BME280;7137;51.436;6.544;2023-08-01T09:06:16;99574.81;;;24.33;62.56
14117;BME280;7137;51.436;6.544;2023-08-01T09:09:18;99577.13;;;23.78;61.65
14117;BME280;7137;51.436;6.544;2023-08-01T09:12:21;99577.84;;;24.63;59.40
14117;BME280;7137;51.436;6.544;2023-08-01T09:15:25;99583.03;;;24.72;59.53
14117;BME280;7137;51.436;6.544;2023-08-01T09:18:29;99574.47;;;23.78;65.33
14117;BME280;7137;51.436;6.544;2023-08-01T09:21:31;99575.84;;;24.89;58.03
14117;BME280;7137;51.436;6.544;2023-08-01T09:24:34;99573.06;;;25.54;55.84
14117;BME280;7137;51.436;6.544;2023-08-01T09:27:37;99580.31;;;24.32;59.91
14117;BME280;7137;51.436;6.544;2023-08-01T09:30:45;99575.81;;;22.78;65.90
14117;BME280;7137;51.436;6.544;2023-08-01T09:33:47;99585.38;;;23.06;66.05
14117;BME280;7137;51.436;6.544;2023-08-01T09:36:49;99583.19;;;24.46;65.21
14117;BME280;7137;51.436;6.544;2023-08-01T09:39:53;99582.16;;;24.31;59.12
14117;BME280;7137;51.436;6.544;2023-08-01T09:43:01;99590.47;;;25.50;58.23
14117;BME280;7137;51.436;6.544;2023-08-01T09:46:03;99591.34;;;23.86;61.17
14117;BME280;7137;51.436;6.544;2023-08-01T09:49:08;99596.97;;;24.25;60.71
14117;BME280;7137;51.436;6.544;2023-08-01T09:52:10;99593.75;;;23.63;60.29
14117;BME280;7137;51.436;6.544;2023-08-01T09:55:11;99588.19;;;23.23;61.42
14117;BME280;7137;51.436;6.544;2023-08-01T09:58:17;99586.94;;;22.91;64.69
14117;BME280;7137;51.436;6.544;2023-08-01T10:01:23;99586.19;;;22.81;65.91
14117;BME280;7137;51.436;6.544;2023-08-01T10:04:27;99580.97;;;23.75;62.01
14117;BME280;7137;51.436;6.544;2023-08-01T10:07:30;99589.19;;;23.90;59.81
14117;BME280;7137;51.436;6.544;2023-08-01T10:10:32;99586.03;;;24.37;55.28
14117;BME280;7137;51.436;6.544;2023-08-01T10:13:36;99587.25;;;25.71;53.88
14117;BME280;7137;51.436;6.544;2023-08-01T10:16:38;99584.31;;;23.77;56.87
14117;BME280;7137;51.436;6.544;2023-08-01T10:19:42;99588.63;;;23.44;57.19
14117;BME280;7137;51.436;6.544;2023-08-01T10:22:44;99599.97;;;22.41;61.55
14117;BME280;7137;51.436;6.544;2023-08-01T10:25:46;99600.53;;;21.89;65.42
14117;BME280;7137;51.436;6.544;2023-08-01T10:28:51;99590.50;;;21.56;67.33
14117;BME280;7137;51.436;6.544;2023-08-01T10:31:54;99599.00;;;21.59;69.62
14117;BME280;7137;51.436;6.544;2023-08-01T10:34:56;99596.38;;;20.74;73.70
14117;BME280;7137;51.436;6.544;2023-08-01T10:38:04;99607.84;;;20.84;79.73
14117;BME280;7137;51.436;6.544;2023-08-01T10:41:05;99609.78;;;20.53;82.94
14117;BME280;7137;51.436;6.544;2023-08-01T10:44:10;99617.25;;;19.48;85.28
14117;BME280;7137;51.436;6.544;2023-08-01T10:47:12;99626.84;;;18.98;90.34
14117;BME280;7137;51.436;6.544;2023-08-01T10:50:14;99645.44;;;17.78;97.61
14117;BME280;7137;51.436;6.544;2023-08-01T10:53:16;99637.66;;;17.08;100.00
14117;BME280;7137;51.436;6.544;2023-08-01T10:56:19;99623.88;;;16.80;100.00
14117;BME280;7137;51.436;6.544;2023-08-01T10:59:22;99618.78;;;17.01;100.00
14117;BME280;7137;51.436;6.544;2023-08-01T11:02:26;99619.47;;;17.38;100.00
14117;BME280;7137;51.436;6.544;2023-08-01T11:05:27;99624.56;;;17.75;100.00
14117;BME280;7137;51.436;6.544;2023-08-01T11:08:34;99630.63;;;17.98;100.00
14117;BME280;7137;51.436;6.544;2023-08-01T11:11:36;99633.56;;;18.38;100.00
14117;BME280;7137;51.436;6.544;2023-08-01T11:14:39;99644.44;;;18.56;98.47
14117;BME280;7137;51.436;6.544;2023-08-01T11:17:42;99640.25;;;18.64;98.27
14117;BME280;7137;51.436;6.544;2023-08-01T11:20:43;99656.41;;;18.39;91.18
14117;BME280;7137;51.436;6.544;2023-08-01T11:23:45;99649.69;;;18.99;93.14
14117;BME280;7137;51.436;6.544;2023-08-01T11:26:48;99653.53;;;19.06;92.09
14117;BME280;7137;51.436;6.544;2023-08-01T11:29:51;99649.28;;;19.56;92.28
14117;BME280;7137;51.436;6.544;2023-08-01T11:32:53;99659.53;;;19.71;88.70
14117;BME280;7137;51.436;6.544;2023-08-01T11:35:55;99653.06;;;19.64;89.55
14117;BME280;7137;51.436;6.544;2023-08-01T11:38:59;99659.88;;;20.37;87.54
14117;BME280;7137;51.436;6.544;2023-08-01T11:42:00;99661.09;;;19.83;88.46
14117;BME280;7137;51.436;6.544;2023-08-01T11:45:12;99666.31;;;19.43;92.21
14117;BME280;7137;51.436;6.544;2023-08-01T11:48:15;99664.09;;;19.27;91.20
14117;BME280;7137;51.436;6.544;2023-08-01T11:51:17;99666.66;;;19.28;92.24
14117;BME280;7137;51.436;6.544;2023-08-01T11:54:18;99668.38;;;19.91;92.04
14117;BME280;7137;51.436;6.544;2023-08-01T11:57:21;99675.16;;;20.64;87.49
14117;BME280;7137;51.436;6.544;2023-08-01T12:00:26;99682.16;;;21.13;84.17
14117;BME280;7137;51.436;6.544;2023-08-01T12:03:28;99680.47;;;21.22;86.92
14117;BME280;7137;51.436;6.544;2023-08-01T12:06:31;99679.06;;;21.47;85.41
14117;BME280;7137;51.436;6.544;2023-08-01T12:09:33;99686.47;;;20.66;88.65
14117;BME280;7137;51.436;6.544;2023-08-01T12:12:43;99701.44;;;19.86;87.59
14117;BME280;7137;51.436;6.544;2023-08-01T12:15:47;99691.19;;;19.51;88.00
14117;BME280;7137;51.436;6.544;2023-08-01T12:18:49;99693.31;;;19.16;87.80
14117;BME280;7137;51.436;6.544;2023-08-01T12:21:50;99683.94;;;19.12;87.53
14117;BME280;7137;51.436;6.544;2023-08-01T12:24:52;99688.53;;;19.10;88.64
14117;BME280;7137;51.436;6.544;2023-08-01T12:27:54;99684.16;;;19.62;90.37
14117;BME280;7137;51.436;6.544;2023-08-01T12:30:56;99676.03;;;19.84;87.58
14117;BME280;7137;51.436;6.544;2023-08-01T12:33:59;99680.94;;;20.38;88.02
14117;BME280;7137;51.436;6.544;2023-08-01T12:37:00;99690.81;;;20.77;86.74
14117;BME280;7137;51.436;6.544;2023-08-01T12:40:02;99683.56;;;21.08;89.75
14117;BME280;7137;51.436;6.544;2023-08-01T12:43:04;99684.53;;;20.87;88.32
14117;BME280;7137;51.436;6.544;2023-08-01T12:46:07;99687.34;;;21.15;84.45
14117;BME280;7137;51.436;6.544;2023-08-01T12:49:09;99684.69;;;20.86;81.31
14117;BME280;7137;51.436;6.544;2023-08-01T12:52:11;99691.53;;;20.88;79.02
14117;BME280;7137;51.436;6.544;2023-08-01T12:55:12;99692.78;;;20.74;85.94
14117;BME280;7137;51.436;6.544;2023-08-01T12:58:14;99688.13;;;20.48;84.93
14117;BME280;7137;51.436;6.544;2023-08-01T13:01:17;99687.56;;;20.44;85.04
14117;BME280;7137;51.436;6.544;2023-08-01T13:04:19;99685.47;;;20.48;83.98
14117;BME280;7137;51.436;6.544;2023-08-01T13:07:20;99686.22;;;20.79;83.02
14117;BME280;7137;51.436;6.544;2023-08-01T13:10:22;99690.09;;;21.23;79.13
14117;BME280;7137;51.436;6.544;2023-08-01T13:13:23;99694.31;;;21.06;79.99
14117;BME280;7137;51.436;6.544;2023-08-01T13:16:26;99693.22;;;20.70;82.14
14117;BME280;7137;51.436;6.544;2023-08-01T13:19:28;99686.88;;;20.52;81.46
14117;BME280;7137;51.436;6.544;2023-08-01T13:22:29;99682.59;;;20.89;81.93
14117;BME280;7137;51.436;6.544;2023-08-01T13:25:31;99680.19;;;21.05;79.75
14117;BME280;7137;51.436;6.544;2023-08-01T13:28:32;99676.56;;;20.97;77.80
14117;BME280;7137;51.436;6.544;2023-08-01T13:31:35;99683.44;;;21.28;78.86
14117;BME280;7137;51.436;6.544;2023-08-01T13:34:37;99691.13;;;21.02;72.63
14117;BME280;7137;51.436;6.544;2023-08-01T13:37:39;99689.59;;;21.00;72.64
14117;BME280;7137;51.436;6.544;2023-08-01T13:40:41;99693.50;;;21.15;71.39
14117;BME280;7137;51.436;6.544;2023-08-01T13:43:43;99695.16;;;21.16;72.45
14117;BME280;7137;51.436;6.544;2023-08-01T13:46:46;99692.22;;;21.10;73.42
14117;BME280;7137;51.436;6.544;2023-08-01T13:49:47;99695.28;;;21.44;72.53
14117;BME280;7137;51.436;6.544;2023-08-01T13:52:49;99701.25;;;21.65;68.42
14117;BME280;7137;51.436;6.544;2023-08-01T13:55:50;99703.50;;;22.07;67.91
14117;BME280;7137;51.436;6.544;2023-08-01T13:58:52;99703.78;;;22.04;63.85
14117;BME280;7137;51.436;6.544;2023-08-01T14:01:56;99711.47;;;21.60;64.57
14117;BME280;7137;51.436;6.544;2023-08-01T14:04:57;99708.44;;;21.45;65.80
14117;BME280;7137;51.436;6.544;2023-08-01T14:07:59;99710.88;;;21.76;65.71
14117;BME280;7137;51.436;6.544;2023-08-01T14:11:03;99702.94;;;22.13;65.51
14117;BME280;7137;51.436;6.544;2023-08-01T14:17:08;99712.56;;;21.77;63.37
14117;BME280;7137;51.436;6.544;2023-08-01T14:20:10;99717.94;;;21.19;63.37
14117;BME280;7137;51.436;6.544;2023-08-01T14:23:12;99716.25;;;21.08;64.13
14117;BME280;7137;51.436;6.544;2023-08-01T14:26:13;99716.28;;;21.37;64.83
14117;BME280;7137;51.436;6.544;2023-08-01T14:29:15;99715.69;;;21.24;64.83
14117;BME280;7137;51.436;6.544;2023-08-01T14:32:20;99723.50;;;21.74;64.52
14117;BME280;7137;51.436;6.544;2023-08-01T14:35:21;99714.16;;;22.34;58.34
14117;BME280;7137;51.436;6.544;2023-08-01T14:38:23;99715.94;;;22.43;57.24
14117;BME280;7137;51.436;6.544;2023-08-01T14:41:24;99713.41;;;22.24;58.02
14117;BME280;7137;51.436;6.544;2023-08-01T14:44:26;99715.06;;;22.25;55.96
14117;BME280;7137;51.436;6.544;2023-08-01T14:47:29;99713.44;;;22.42;55.96
14117;BME280;7137;51.436;6.544;2023-08-01T14:50:31;99713.47;;;22.77;53.56
14117;BME280;7137;51.436;6.544;2023-08-01T14:53:32;99715.59;;;22.74;53.25
14117;BME280;7137;51.436;6.544;2023-08-01T14:56:34;99720.00;;;22.65;52.74
14117;BME280;7137;51.436;6.544;2023-08-01T14:59:36;99707.28;;;22.87;55.37
14117;BME280;7137;51.436;6.544;2023-08-01T15:02:38;99724.19;;;22.95;53.69
14117;BME280;7137;51.436;6.544;2023-08-01T15:05:40;99719.47;;;22.79;52.61
14117;BME280;7137;51.436;6.544;2023-08-01T15:08:42;99727.16;;;22.37;55.12
14117;BME280;7137;51.436;6.544;2023-08-01T15:11:43;99714.84;;;22.36;54.91
14117;BME280;7137;51.436;6.544;2023-08-01T15:14:45;99719.78;;;22.76;55.25
14117;BME280;7137;51.436;6.544;2023-08-01T15:17:48;99723.41;;;23.03;52.95
14117;BME280;7137;51.436;6.544;2023-08-01T15:20:49;99721.53;;;22.95;50.97
14117;BME280;7137;51.436;6.544;2023-08-01T15:23:52;99718.56;;;22.98;50.36
14117;BME280;7137;51.436;6.544;2023-08-01T15:26:54;99728.44;;;23.06;49.64
14117;BME280;7137;51.436;6.544;2023-08-01T15:29:56;99726.53;;;22.98;50.38
14117;BME280;7137;51.436;6.544;2023-08-01T15:32:59;99732.25;;;22.31;51.85
14117;BME280;7137;51.436;6.544;2023-08-01T15:36:02;99732.44;;;22.19;52.16
14117;BME280;7137;51.436;6.544;2023-08-01T15:39:04;99726.81;;;22.22;53.15
14117;BME280;7137;51.436;6.544;2023-08-01T15:42:06;99741.22;;;22.30;56.14
14117;BME280;7137;51.436;6.544;2023-08-01T15:45:08;99750.00;;;22.03;55.61
14117;BME280;7137;51.436;6.544;2023-08-01T15:48:11;99746.75;;;22.09;57.44
14117;BME280;7137;51.436;6.544;2023-08-01T15:51:12;99744.34;;;22.25;57.70
14117;BME280;7137;51.436;6.544;2023-08-01T15:54:14;99744.19;;;22.27;57.95
14117;BME280;7137;51.436;6.544;2023-08-01T15:57:16;99732.97;;;22.50;56.62
14117;BME280;7137;51.436;6.544;2023-08-01T16:00:18;99754.38;;;22.31;56.99
14117;BME280;7137;51.436;6.544;2023-08-01T16:03:21;99745.66;;;22.02;56.79
14117;BME280;7137;51.436;6.544;2023-08-01T16:06:22;99745.84;;;21.81;56.44
14117;BME280;7137;51.436;6.544;2023-08-01T16:09:24;99748.00;;;22.05;57.04
14117;BME280;7137;51.436;6.544;2023-08-01T16:12:25;99741.13;;;22.21;56.73
14117;BME280;7137;51.436;6.544;2023-08-01T16:15:27;99753.41;;;22.32;54.80